aviador You're here:

KBKW Decoded Metar

BECKLEY in WV, USA
Report Time2017-07-26 05:51:00
UTC Time2017-07-26 06:24:53
Flight Rules vfr VFR
WindCalm
Visibility9999 m
Phenomena:N/A
Clouds:N/A
Expected CloudBase > 1,200 ft AGL from Temp-Dew spread
CeilingNone
Temp16°C (ISA +6)
Dew Point13°C (83% RH)
QNH1024 hPa
Density Alt3,051 ft
Elevation2,507 ft
Report Wrong Elevation
Raw Report
METAR KBKW 260551Z AUTO 00000KT 10SM CLR 16/13 A3024 RMK AO2 SLP212
T01560133 10228 20150 55003 TSNO=

Extra information for KBKW:More info

Metar Taf Metar & Taf Last 4 Metars F.Rules Stats Wind Profile Meteogram Temp Stats Airport Information Weather charts Add Link Nearby VenuesMetar ALERT Operation Metar Decoded Social comments

AIRNAV info for KBKW